Time;durP1;ratioP1;P1;durP2;ratioP2;P2;SDS_P1;SDS_P2;PMS_P1;PMS_P2;Temp;Humidity;BMP_temperature;BMP_pressure;BME280_temperature;BME280_humidity;BME280_pressure;Samples;Min_cycle;Max_cycle;Signal;HPM_P1;HPM_P2
2023/08/23 08:48:08;;;;;;;3.80;2.97;;;;;;;19.64;100.00;101844.06;5067895;28;20371;-66
2023/08/23 08:50:33;;;;;;;7.03;3.40;;;;;;;19.71;100.00;101846.59;5049636;28;20040;-69
2023/08/23 08:53:00;;;;;;;8.48;3.05;;;;;;;19.75;100.00;101855.97;5063506;28;20108;-68
2023/08/23 08:55:27;;;;;;;8.63;3.33;;;;;;;19.88;100.00;101846.47;5069513;28;20108;-67
2023/08/23 08:57:54;;;;;;;7.22;3.47;;;;;;;19.98;100.00;101852.88;5068413;28;20033;-68
2023/08/23 09:00:22;;;;;;;4.55;3.10;;;;;;;19.95;100.00;101853.38;5068212;28;20035;-66
2023/08/23 09:02:51;;;;;;;8.05;2.83;;;;;;;20.06;100.00;101851.53;5067935;28;20048;-68
2023/08/23 09:05:18;;;;;;;10.70;2.90;;;;;;;20.16;100.00;101853.53;5069418;28;20464;-67
2023/08/23 09:07:43;;;;;;;7.75;3.20;;;;;;;20.24;100.00;101860.44;5062549;28;20024;-68
2023/08/23 09:10:10;;;;;;;12.82;3.72;;;;;;;20.29;100.00;101849.47;5049589;28;20037;-68
2023/08/23 09:12:35;;;;;;;21.30;4.68;;;;;;;20.26;100.00;101842.63;5049005;28;20515;-68
2023/08/23 09:15:04;;;;;;;18.70;3.55;;;;;;;20.36;100.00;101852.81;5048234;28;20029;-68
2023/08/23 09:17:35;;;;;;;16.33;3.53;;;;;;;20.56;100.00;101845.78;5049058;28;20067;-69
2023/08/23 09:20:08;;;;;;;22.40;3.97;;;;;;;20.58;100.00;101849.06;5049165;28;20480;-67
2023/08/23 09:22:34;;;;;;;20.90;4.18;;;;;;;20.62;100.00;101845.53;5055071;28;20113;-68
2023/08/23 09:25:03;;;;;;;14.57;3.70;;;;;;;20.64;100.00;101851.59;5058440;28;20069;-67
2023/08/23 09:27:29;;;;;;;6.95;3.38;;;;;;;20.76;100.00;101851.41;5042899;28;20022;-66
2023/08/23 09:29:58;;;;;;;17.48;4.65;;;;;;;20.81;100.00;101850.59;5029307;28;20129;-68
2023/08/23 09:32:25;;;;;;;16.38;5.43;;;;;;;20.92;100.00;101862.44;5017286;28;20030;-68
2023/08/23 09:34:50;;;;;;;19.42;4.55;;;;;;;20.95;100.00;101865.47;5036692;28;20061;-67
2023/08/23 09:37:17;;;;;;;9.35;4.80;;;;;;;21.05;100.00;101868.25;5028426;28;20125;-67
2023/08/23 09:39:42;;;;;;;8.82;5.60;;;;;;;21.11;100.00;101860.03;5028668;28;20439;-68
2023/08/23 09:42:13;;;;;;;13.38;5.70;;;;;;;21.10;100.00;101855.63;5029377;28;20029;-67
2023/08/23 09:44:46;;;;;;;7.32;4.68;;;;;;;21.20;100.00;101855.66;5034769;28;20032;-67
2023/08/23 09:47:17;;;;;;;13.50;4.30;;;;;;;21.28;100.00;101851.53;5023360;28;20050;-67
2023/08/23 09:49:44;;;;;;;8.90;6.07;;;;;;;21.27;100.00;101856.19;5026830;28;20037;-66
2023/08/23 09:52:13;;;;;;;10.73;5.35;;;;;;;21.28;100.00;101848.78;5038342;28;20439;-66
2023/08/23 09:54:53;;;;;;;9.40;5.43;;;;;;;21.28;100.00;101852.34;5027691;28;20030;-66
2023/08/23 09:57:19;;;;;;;7.38;6.03;;;;;;;21.28;100.00;101857.84;5028833;28;20121;-67
2023/08/23 09:59:45;;;;;;;8.88;4.80;;;;;;;21.42;100.00;101847.97;5013236;28;20052;-68
2023/08/23 10:02:10;;;;;;;11.10;6.00;;;;;;;21.42;100.00;101853.47;5011180;28;20409;-69
2023/08/23 10:04:40;;;;;;;10.18;5.32;;;;;;;21.61;100.00;101857.66;5016633;28;20025;-66
2023/08/23 10:07:08;;;;;;;10.32;5.43;;;;;;;21.50;100.00;101860.41;5035186;28;20030;-70
2023/08/23 10:09:35;;;;;;;12.75;5.00;;;;;;;21.50;98.73;101854.88;5017505;28;20514;-69
2023/08/23 10:12:01;;;;;;;8.35;5.18;;;;;;;21.51;98.27;101855.69;5035149;28;20218;-66
2023/08/23 10:14:28;;;;;;;8.77;4.82;;;;;;;21.53;100.00;101850.72;5019618;28;20121;-67
2023/08/23 10:16:54;;;;;;;9.25;6.28;;;;;;;21.67;99.62;101860.13;5014770;28;20030;-68
2023/08/23 10:19:20;;;;;;;9.07;5.93;;;;;;;21.62;96.04;101854.63;5030290;28;20065;-69
2023/08/23 10:21:45;;;;;;;9.38;5.38;;;;;;;21.65;95.10;101854.06;5015190;28;20072;-69
2023/08/23 10:24:11;;;;;;;22.67;5.30;;;;;;;21.72;95.40;101862.03;5014585;28;20033;-67
2023/08/23 10:26:49;;;;;;;10.85;5.78;;;;;;;21.77;100.00;101854.59;5014842;28;20133;-67
2023/08/23 10:29:22;;;;;;;10.55;5.43;;;;;;;21.74;96.45;101857.06;5015122;28;20037;-68
2023/08/23 10:31:53;;;;;;;17.33;6.40;;;;;;;21.85;92.70;101852.41;5014337;28;20058;-68
2023/08/23 10:34:23;;;;;;;6.63;5.00;;;;;;;22.06;83.61;101851.25;5029084;28;20046;-70
2023/08/23 10:36:49;;;;;;;9.05;4.97;;;;;;;22.15;82.79;101850.69;5029438;28;20516;-69
2023/08/23 10:39:14;;;;;;;8.80;4.68;;;;;;;22.21;74.00;101852.31;5014298;28;20034;-68
2023/08/23 10:41:40;;;;;;;8.27;4.80;;;;;;;22.30;80.09;101850.66;5014995;28;20585;-69
2023/08/23 10:44:14;;;;;;;9.75;5.18;;;;;;;22.39;81.24;101854.53;5013625;28;20075;-67
2023/08/23 10:46:44;;;;;;;9.05;5.03;;;;;;;22.48;81.65;101847.31;5034086;28;20053;-69
2023/08/23 10:49:11;;;;;;;10.20;4.90;;;;;;;22.57;77.70;101844.81;5034528;28;20164;-69
2023/08/23 10:51:41;;;;;;;6.25;4.00;;;;;;;22.61;70.53;101837.59;5028927;28;20057;-69
2023/08/23 10:54:11;;;;;;;8.75;3.85;;;;;;;22.71;69.14;101839.50;5029925;28;20033;-70
2023/08/23 10:56:37;;;;;;;9.57;4.40;;;;;;;22.67;65.97;101837.59;5026608;28;20030;-66
2023/08/23 10:59:02;;;;;;;7.57;4.28;;;;;;;22.65;65.71;101841.44;5014462;28;20032;-69
2023/08/23 11:01:28;;;;;;;7.18;4.00;;;;;;;22.64;67.38;101834.28;5011864;28;20101;-68
2023/08/23 11:03:55;;;;;;;8.07;3.95;;;;;;;22.71;66.94;101828.47;5014412;28;20033;-68
2023/08/23 11:06:20;;;;;;;6.70;3.80;;;;;;;22.76;65.93;101816.56;5013779;28;20038;-65
2023/08/23 11:08:46;;;;;;;8.48;4.28;;;;;;;22.68;65.54;101814.41;5026244;28;20372;-70
2023/08/23 11:11:12;;;;;;;5.35;3.80;;;;;;;22.72;69.23;101812.72;5033122;28;20037;-69
2023/08/23 11:13:37;;;;;;;6.78;4.00;;;;;;;22.78;65.84;101806.06;5033814;28;20140;-71
2023/08/23 11:16:04;;;;;;;7.50;3.90;;;;;;;22.89;67.75;101802.16;5028360;28;20521;-68
2023/08/23 11:18:29;;;;;;;8.00;3.47;;;;;;;23.03;65.64;101807.84;5013627;28;20444;-66
2023/08/23 11:20:55;;;;;;;5.07;3.00;;;;;;;23.17;67.68;101808.91;5014186;28;20029;-68
2023/08/23 11:23:20;;;;;;;5.70;3.17;;;;;;;23.34;70.29;101802.13;5027062;28;20034;-68
2023/08/23 11:25:45;;;;;;;7.57;3.22;;;;;;;23.45;64.17;101792.66;5033379;28;20538;-69
2023/08/23 11:28:15;;;;;;;3.95;2.30;;;;;;;23.60;63.68;101794.47;5033998;28;20026;-66
2023/08/23 11:30:42;;;;;;;5.00;3.20;;;;;;;23.49;59.75;101801.19;5033475;28;20049;-69
2023/08/23 11:33:07;;;;;;;6.70;3.00;;;;;;;23.57;59.80;101800.56;5033664;28;20084;-69
2023/08/23 11:35:32;;;;;;;5.10;2.65;;;;;;;23.47;53.51;101797.91;5027298;28;20030;-68
2023/08/23 11:37:58;;;;;;;5.40;2.78;;;;;;;23.48;56.29;101805.91;5021753;28;20369;-69
2023/08/23 11:40:24;;;;;;;5.55;3.08;;;;;;;23.57;60.70;101799.72;5029647;28;20029;-69
2023/08/23 11:42:49;;;;;;;5.13;3.03;;;;;;;23.63;60.75;101802.19;5033504;28;20045;-67
2023/08/23 11:45:14;;;;;;;9.50;3.50;;;;;;;23.67;59.77;101794.97;5032068;28;20033;-67
2023/08/23 11:47:41;;;;;;;6.38;3.40;;;;;;;23.70;58.83;101793.53;5032621;28;20053;-66
2023/08/23 11:50:10;;;;;;;5.03;2.78;;;;;;;23.81;57.67;101803.38;5033328;28;20036;-66
2023/08/23 11:52:35;;;;;;;4.85;2.75;;;;;;;23.91;59.91;101802.47;5031682;28;20060;-68
2023/08/23 11:55:04;;;;;;;8.05;3.30;;;;;;;24.00;59.88;101797.13;5015596;28;20061;-67
2023/08/23 11:57:35;;;;;;;6.32;2.90;;;;;;;24.20;60.69;101796.91;4993861;28;20370;-67
2023/08/23 12:00:01;;;;;;;7.47;3.17;;;;;;;24.22;57.49;101794.66;4993814;28;20092;-66
2023/08/23 12:02:27;;;;;;;5.30;2.97;;;;;;;24.19;55.02;101795.25;4991480;28;20645;-69
2023/08/23 12:04:52;;;;;;;4.82;2.65;;;;;;;24.22;54.92;101794.66;4995849;28;20037;-67
2023/08/23 12:07:17;;;;;;;4.15;2.33;;;;;;;24.31;54.84;101791.25;5013434;28;20369;-68
2023/08/23 12:09:43;;;;;;;4.63;2.10;;;;;;;24.36;53.12;101788.44;5021022;28;20026;-65
2023/08/23 12:12:08;;;;;;;4.88;2.38;;;;;;;24.34;51.41;101790.66;5021693;28;20029;-68
2023/08/23 12:14:34;;;;;;;5.40;2.60;;;;;;;24.55;53.30;101783.75;5028058;28;20026;-69
2023/08/23 12:16:59;;;;;;;3.53;2.38;;;;;;;24.54;53.08;101784.84;5012575;28;20037;-68
2023/08/23 12:19:25;;;;;;;6.97;2.60;;;;;;;24.66;54.48;101784.47;5013050;28;20026;-68
2023/08/23 12:21:50;;;;;;;6.10;2.95;;;;;;;24.74;53.46;101791.25;5012935;28;20057;-71
2023/08/23 12:24:16;;;;;;;5.50;2.50;;;;;;;24.87;55.71;101790.53;5012444;28;20113;-68
2023/08/23 12:26:42;;;;;;;6.20;2.50;;;;;;;24.88;52.91;101788.56;5013631;28;20037;-68
2023/08/23 12:29:07;;;;;;;8.73;2.72;;;;;;;24.92;52.90;101786.84;5029684;28;20056;-69
2023/08/23 12:31:33;;;;;;;8.25;2.63;;;;;;;24.97;51.93;101788.72;5022448;28;20362;-68
2023/08/23 12:33:58;;;;;;;5.35;2.33;;;;;;;25.01;52.01;101775.94;5011862;28;20088;-69
2023/08/23 12:36:25;;;;;;;8.23;2.38;;;;;;;25.16;51.71;101777.63;5001179;28;20037;-70
2023/08/23 12:38:50;;;;;;;4.13;1.90;;;;;;;25.11;49.58;101781.31;5004171;28;20041;-71
2023/08/23 12:41:16;;;;;;;5.25;2.00;;;;;;;25.03;49.14;101784.75;5030792;28;20030;-68
2023/08/23 12:43:41;;;;;;;3.83;2.03;;;;;;;25.01;49.37;101782.28;5030190;28;20112;-67
2023/08/23 12:46:07;;;;;;;5.40;1.80;;;;;;;24.96;49.99;101779.59;5010514;28;20070;-68
2023/08/23 12:48:33;;;;;;;5.90;2.55;;;;;;;24.98;50.04;101768.22;5012614;28;20029;-68
2023/08/23 12:50:58;;;;;;;4.80;2.38;;;;;;;25.09;50.43;101786.31;5012668;28;20030;-68
2023/08/23 12:53:23;;;;;;;4.05;2.30;;;;;;;25.08;49.80;101785.50;5007237;28;20088;-70
2023/08/23 12:55:52;;;;;;;5.07;2.63;;;;;;;25.01;50.86;101784.25;5017106;28;20462;-70
2023/08/23 12:58:18;;;;;;;6.32;2.40;;;;;;;25.40;54.22;101775.59;5015799;28;20037;-69
2023/08/23 13:00:44;;;;;;;5.50;2.22;;;;;;;25.39;50.27;101770.34;5025494;28;20136;-73
2023/08/23 13:03:10;;;;;;;6.32;2.20;;;;;;;25.45;50.49;101769.13;5020598;28;20053;-69
2023/08/23 13:05:35;;;;;;;5.57;2.70;;;;;;;25.49;50.14;101770.19;5014383;28;20038;-68
2023/08/23 13:08:00;;;;;;;4.32;2.65;;;;;;;25.35;50.12;101769.31;5032306;28;20033;-68
2023/08/23 13:10:26;;;;;;;5.72;2.50;;;;;;;25.34;49.89;101764.91;5015333;28;20034;-68
2023/08/23 13:12:51;;;;;;;6.45;2.50;;;;;;;25.52;51.30;101764.03;5011142;28;20451;-68
2023/08/23 13:15:17;;;;;;;3.92;2.42;;;;;;;25.80;49.67;101775.16;5010679;28;20037;-69
2023/08/23 13:17:42;;;;;;;5.65;2.60;;;;;;;25.81;50.63;101768.47;5028303;28;20044;-69
2023/08/23 13:20:09;;;;;;;7.00;2.83;;;;;;;25.80;48.70;101766.81;5032214;28;20037;-68
2023/08/23 13:22:35;;;;;;;6.07;2.60;;;;;;;25.88;48.03;101771.69;5032096;28;20029;-67
2023/08/23 13:25:00;;;;;;;7.30;2.35;;;;;;;25.98;49.14;101765.97;5029732;28;20491;-67
2023/08/23 13:27:25;;;;;;;8.85;2.72;;;;;;;25.96;48.87;101761.81;5032298;28;20108;-74
2023/08/23 13:29:51;;;;;;;4.47;2.75;;;;;;;25.95;47.40;101766.56;5031928;28;20025;-70
2023/08/23 13:32:18;;;;;;;7.35;2.75;;;;;;;25.93;47.70;101771.56;5032132;28;20022;-67
2023/08/23 13:34:43;;;;;;;6.07;2.70;;;;;;;26.02;46.94;101763.38;5032075;28;20392;-66
2023/08/23 13:37:08;;;;;;;6.63;2.70;;;;;;;26.04;46.67;101760.31;5035851;28;20030;-69
2023/08/23 13:39:35;;;;;;;6.03;2.50;;;;;;;26.11;46.47;101769.84;5035550;28;20052;-67
2023/08/23 13:42:00;;;;;;;5.13;2.25;;;;;;;26.17;46.20;101767.81;5029672;28;20037;-67
2023/08/23 13:44:26;;;;;;;4.95;2.30;;;;;;;26.27;46.47;101762.06;5024656;28;20037;-67
2023/08/23 13:46:51;;;;;;;5.00;2.70;;;;;;;26.17;45.71;101765.03;5014467;28;20390;-67
2023/08/23 13:49:17;;;;;;;4.65;2.60;;;;;;;26.24;46.70;101757.13;5033062;28;20029;-66
2023/08/23 13:51:42;;;;;;;7.32;2.80;;;;;;;26.22;45.82;101758.56;5031395;28;20030;-67
2023/08/23 13:54:07;;;;;;;8.32;2.90;;;;;;;26.26;45.75;101754.03;5009628;28;20100;-67
2023/08/23 13:56:33;;;;;;;4.82;2.40;;;;;;;26.44;45.96;101758.63;5033920;28;20057;-67
2023/08/23 13:58:59;;;;;;;5.10;2.45;;;;;;;26.64;46.33;101748.19;5035178;28;20030;-67
2023/08/23 14:01:25;;;;;;;5.20;2.63;;;;;;;26.62;44.93;101754.06;5033056;28;20072;-67
2023/08/23 14:03:51;;;;;;;9.05;2.95;;;;;;;26.63;44.99;101750.16;5026787;28;20044;-67
2023/08/23 14:06:16;;;;;;;10.02;3.20;;;;;;;26.56;44.45;101746.16;5015589;28;20026;-66
2023/08/23 14:08:41;;;;;;;6.40;2.65;;;;;;;26.60;44.12;101741.63;5015280;28;20116;-67
2023/08/23 14:11:07;;;;;;;7.05;2.70;;;;;;;26.59;44.97;101737.22;5015180;28;20034;-67
2023/08/23 14:13:32;;;;;;;10.38;3.15;;;;;;;26.61;44.40;101738.53;5015148;28;20030;-67
2023/08/23 14:15:57;;;;;;;5.53;2.70;;;;;;;26.65;43.33;101731.22;5015253;28;20105;-67
2023/08/23 14:18:23;;;;;;;6.63;2.80;;;;;;;26.75;45.04;101729.38;5015305;28;20080;-67
2023/08/23 14:20:49;;;;;;;8.00;2.40;;;;;;;26.82;45.11;101724.22;5023229;28;20621;-67
2023/08/23 14:23:14;;;;;;;3.65;2.03;;;;;;;26.89;47.28;101727.38;5029021;28;20029;-70
2023/08/23 14:25:40;;;;;;;4.63;2.55;;;;;;;27.17;43.73;101730.00;5014021;28;20034;-67
2023/08/23 14:28:05;;;;;;;7.38;2.90;;;;;;;27.05;42.43;101727.81;5020857;28;20040;-68
2023/08/23 14:30:31;;;;;;;5.85;2.88;;;;;;;27.25;42.69;101715.34;5023291;28;20037;-68
2023/08/23 14:32:56;;;;;;;6.90;3.03;;;;;;;27.45;42.64;101710.41;5025994;28;20496;-68
2023/08/23 14:35:21;;;;;;;4.82;2.42;;;;;;;27.74;42.05;101716.28;5022240;28;20034;-72
2023/08/23 14:37:47;;;;;;;4.50;2.70;;;;;;;27.90;41.10;101713.06;5016751;28;20033;-69
2023/08/23 14:40:14;;;;;;;13.52;3.10;;;;;;;28.17;40.30;101720.34;5025683;28;20037;-66
2023/08/23 14:42:40;;;;;;;6.93;3.42;;;;;;;28.01;40.17;101721.97;5034399;28;20120;-70
2023/08/23 14:45:07;;;;;;;5.80;3.22;;;;;;;28.07;41.04;101720.69;5034495;28;20037;-66
2023/08/23 14:47:32;;;;;;;7.05;3.60;;;;;;;28.38;40.61;101717.78;5034361;28;20480;-70
2023/08/23 14:49:57;;;;;;;8.63;3.75;;;;;;;28.26;39.91;101712.03;5034298;28;20113;-69
2023/08/23 14:52:23;;;;;;;4.18;2.95;;;;;;;28.57;42.81;101711.09;5034772;28;20033;-68
2023/08/23 14:54:48;;;;;;;5.93;3.10;;;;;;;28.83;40.04;101718.66;5027133;28;20578;-65
2023/08/23 14:57:14;;;;;;;9.90;4.13;;;;;;;29.02;39.39;101721.06;5018813;28;20385;-67
2023/08/23 14:59:45;;;;;;;6.72;3.80;;;;;;;28.92;40.03;101720.25;5014349;28;20034;-71
2023/08/23 15:02:12;;;;;;;10.38;3.80;;;;;;;29.13;41.86;101716.81;5012174;28;20045;-67
2023/08/23 15:04:46;;;;;;;5.40;3.38;;;;;;;29.55;43.12;101716.19;5014187;28;20084;-66
2023/08/23 15:07:13;;;;;;;7.70;3.70;;;;;;;29.73;39.90;101711.38;5014358;28;20104;-67
2023/08/23 15:09:38;;;;;;;7.05;2.78;;;;;;;30.09;37.82;101708.09;5024734;28;20112;-72
2023/08/23 15:12:05;;;;;;;5.47;2.40;;;;;;;30.17;37.65;101706.41;5034083;28;20448;-67
2023/08/23 15:14:31;;;;;;;8.95;3.25;;;;;;;30.22;37.55;101712.59;5015806;28;20121;-68
2023/08/23 15:16:56;;;;;;;6.38;2.67;;;;;;;30.04;36.46;101706.31;5014004;28;20112;-66
2023/08/23 15:19:21;;;;;;;5.43;3.03;;;;;;;29.87;36.13;101714.78;5014111;28;20026;-70
2023/08/23 15:21:47;;;;;;;7.25;2.80;;;;;;;29.76;36.07;101714.31;5013747;28;20445;-70
2023/08/23 15:24:12;;;;;;;3.75;2.50;;;;;;;29.76;36.19;101708.75;5024769;28;20075;-70
2023/08/23 15:26:37;;;;;;;5.15;2.88;;;;;;;29.61;36.88;101707.34;5033553;28;20086;-69
2023/08/23 15:29:04;;;;;;;7.67;3.30;;;;;;;29.48;37.38;101714.75;5017386;28;20062;-69
2023/08/23 15:31:29;;;;;;;7.07;3.22;;;;;;;29.46;37.46;101707.88;5011837;28;20265;-68
2023/08/23 15:33:55;;;;;;;6.88;3.25;;;;;;;29.65;36.84;101713.88;5005669;28;20072;-69
2023/08/23 15:36:20;;;;;;;7.28;3.47;;;;;;;29.61;37.38;101700.94;5012125;28;20034;-68
2023/08/23 15:38:45;;;;;;;6.50;3.25;;;;;;;29.43;38.66;101705.78;5020229;28;20113;-68
2023/08/23 15:41:11;;;;;;;7.78;3.67;;;;;;;29.47;37.11;101699.19;5020361;28;20103;-69
2023/08/23 15:43:36;;;;;;;8.50;3.17;;;;;;;29.43;37.76;101708.56;5026162;28;20396;-68
2023/08/23 15:46:02;;;;;;;6.30;2.63;;;;;;;29.42;36.80;101704.13;5028441;28;20195;-68
2023/08/23 15:48:27;;;;;;;10.40;2.97;;;;;;;29.45;37.83;101698.69;5031557;28;20264;-68
2023/08/23 15:50:53;;;;;;;7.10;2.83;;;;;;;29.61;37.85;101700.94;5032771;28;20033;-68
2023/08/23 15:53:19;;;;;;;4.10;2.67;;;;;;;29.68;38.13;101699.25;5031952;28;20030;-68
2023/08/23 15:55:44;;;;;;;8.88;2.90;;;;;;;29.65;37.42;101699.09;5007402;28;20029;-68
2023/08/23 15:58:09;;;;;;;6.55;2.75;;;;;;;29.62;37.81;101696.97;4999474;28;20030;-70
2023/08/23 16:00:35;;;;;;;6.27;2.57;;;;;;;29.50;37.00;101698.53;5014060;28;20044;-69
2023/08/23 16:03:00;;;;;;;8.80;2.72;;;;;;;29.43;37.57;101686.25;5020526;28;20303;-69
